Time;durP1;ratioP1;P1;durP2;ratioP2;P2;SDS_P1;SDS_P2;PMS_P1;PMS_P2;Temp;Humidity;BMP_temperature;BMP_pressure;BME280_temperature;BME280_humidity;BME280_pressure;Samples;Min_cycle;Max_cycle;Signal;HPM_P1;HPM_P2
2023/05/10 00:02:50;;;;;;;9.50;3.60;;;;;;;9.88;41.37;100380.33;105504;1264;59712;-64
2023/05/10 00:05:39;;;;;;;9.60;3.70;;;;;;;9.84;41.62;100377.40;105574;1261;60099;-64
2023/05/10 00:08:27;;;;;;;9.50;3.90;;;;;;;9.81;41.63;100377.42;105479;1264;73995;-66
2023/05/10 00:11:17;;;;;;;7.50;3.50;;;;;;;9.78;41.80;100378.90;105625;1257;68034;-66
2023/05/10 00:14:07;;;;;;;8.40;3.50;;;;;;;9.72;41.89;100373.98;105537;1263;72248;-66
2023/05/10 00:17:00;;;;;;;7.80;3.50;;;;;;;9.67;42.17;100376.13;105477;1264;60051;-64
2023/05/10 00:19:54;;;;;;;8.60;3.30;;;;;;;9.64;42.01;100377.73;105732;1266;60525;-67
2023/05/10 00:22:43;;;;;;;8.30;3.20;;;;;;;9.61;42.40;100378.09;105952;1257;73581;-68
2023/05/10 00:25:33;;;;;;;7.80;3.40;;;;;;;9.58;42.35;100379.91;105885;1263;67966;-67
2023/05/10 00:28:22;;;;;;;8.10;3.30;;;;;;;9.57;42.41;100377.33;105523;1263;71565;-68
2023/05/10 00:31:11;;;;;;;10.40;3.50;;;;;;;9.57;42.27;100382.09;105636;1257;59642;-65
2023/05/10 00:33:59;;;;;;;8.60;3.40;;;;;;;9.57;42.47;100381.57;105247;1256;60864;-67
2023/05/10 00:36:47;;;;;;;10.80;3.20;;;;;;;9.55;42.59;100377.44;105487;1257;72276;-70
2023/05/10 00:39:35;;;;;;;8.70;3.60;;;;;;;9.53;42.33;100376.15;105691;1257;68641;-66
2023/05/10 00:42:26;;;;;;;7.90;3.20;;;;;;;9.50;42.58;100374.22;105871;1257;72688;-67
2023/05/10 00:45:14;;;;;;;7.60;3.30;;;;;;;9.47;42.73;100371.42;105406;1266;59653;-66
2023/05/10 00:48:03;;;;;;;7.80;3.40;;;;;;;9.45;42.62;100372.11;104600;1261;1002932;-67
2023/05/10 00:50:51;;;;;;;9.40;3.60;;;;;;;9.43;42.90;100362.84;105289;1260;72934;-68
2023/05/10 00:53:41;;;;;;;8.40;3.40;;;;;;;9.42;42.63;100370.53;105281;1266;66751;-66
2023/05/10 00:56:29;;;;;;;8.40;3.10;;;;;;;9.42;42.64;100370.36;105468;1264;72864;-69
2023/05/10 00:59:18;;;;;;;9.10;3.50;;;;;;;9.36;42.86;100359.29;105282;1261;59941;-69
2023/05/10 01:02:06;;;;;;;9.20;3.90;;;;;;;9.37;42.99;100362.55;105282;1260;59633;-69
2023/05/10 01:04:55;;;;;;;9.30;3.70;;;;;;;9.32;43.10;100359.49;105314;1260;71855;-67
2023/05/10 01:07:43;;;;;;;9.70;3.50;;;;;;;9.30;43.06;100357.55;105276;1264;67948;-69
2023/05/10 01:10:33;;;;;;;8.00;3.50;;;;;;;9.27;43.21;100354.41;105307;1261;72607;-69
2023/05/10 01:13:39;;;;;;;8.60;3.60;;;;;;;9.22;43.36;100356.33;105414;1267;59632;-68
2023/05/10 01:16:29;;;;;;;7.90;3.90;;;;;;;9.20;43.23;100355.54;105463;1256;60419;-68
2023/05/10 01:19:25;;;;;;;9.50;3.60;;;;;;;9.20;43.42;100353.41;105612;1261;71485;-66
2023/05/10 01:22:47;;;;;;;8.60;3.40;;;;;;;9.17;43.38;100352.55;105609;1263;67479;-66
2023/05/10 01:26:32;;;;;;;9.00;3.30;;;;;;;9.14;43.53;100352.36;105673;1260;72433;-66
2023/05/10 01:30:05;;;;;;;9.30;4.40;;;;;;;9.12;43.45;100351.80;105611;1256;59726;-67
2023/05/10 01:33:31;;;;;;;9.50;3.40;;;;;;;9.09;43.75;100346.89;105651;1261;60467;-65
2023/05/10 01:37:07;;;;;;;9.90;3.30;;;;;;;9.06;43.61;100342.14;105803;1257;73622;-65
2023/05/10 01:40:47;;;;;;;8.50;3.60;;;;;;;9.01;43.58;100336.06;105825;1257;68205;-66
2023/05/10 01:44:07;;;;;;;9.50;4.10;;;;;;;8.97;43.75;100338.82;105226;1264;72850;-65
2023/05/10 01:47:16;;;;;;;8.00;3.70;;;;;;;8.98;43.70;100337.35;105288;1264;59688;-66
2023/05/10 01:50:13;;;;;;;7.80;3.70;;;;;;;8.95;43.62;100333.30;105347;1264;60997;-65
2023/05/10 01:53:05;;;;;;;9.00;3.90;;;;;;;8.95;43.66;100335.65;105337;1270;72817;-66
2023/05/10 01:55:56;;;;;;;9.20;4.10;;;;;;;8.93;43.72;100339.48;105059;1267;67720;-66
2023/05/10 01:58:48;;;;;;;9.10;3.90;;;;;;;8.90;43.81;100337.23;105180;1264;73199;-68
2023/05/10 02:01:38;;;;;;;10.40;3.80;;;;;;;8.86;44.20;100333.70;105239;1267;59771;-68
2023/05/10 02:04:27;;;;;;;10.40;3.90;;;;;;;8.82;44.20;100336.95;105184;1263;59657;-68
2023/05/10 02:07:17;;;;;;;7.90;3.60;;;;;;;8.78;44.13;100337.77;105009;1266;71797;-66
2023/05/10 02:10:09;;;;;;;8.40;3.60;;;;;;;8.74;44.64;100334.34;105249;1263;67882;-70
2023/05/10 02:12:59;;;;;;;8.80;4.00;;;;;;;8.71;44.54;100337.58;105176;1264;71419;-68
2023/05/10 02:15:50;;;;;;;12.50;4.40;;;;;;;8.66;44.79;100338.05;105240;1265;59615;-69
2023/05/10 02:18:41;;;;;;;10.60;4.00;;;;;;;8.61;44.93;100332.56;105158;1264;61342;-69
2023/05/10 02:21:32;;;;;;;8.50;3.90;;;;;;;8.56;45.17;100335.17;105669;1256;71678;-65
2023/05/10 02:24:23;;;;;;;8.60;3.60;;;;;;;8.49;45.37;100334.73;105723;1256;67582;-68
2023/05/10 02:27:13;;;;;;;10.40;4.00;;;;;;;8.44;45.46;100335.55;105667;1260;72455;-68
2023/05/10 02:30:04;;;;;;;10.30;3.80;;;;;;;8.40;45.55;100334.90;105802;1262;59635;-69
2023/05/10 02:32:53;;;;;;;9.30;4.20;;;;;;;8.37;45.65;100330.18;105819;1259;59631;-69
2023/05/10 02:35:42;;;;;;;8.00;3.60;;;;;;;8.34;45.85;100332.61;105771;1257;72700;-68
2023/05/10 02:38:33;;;;;;;8.10;3.70;;;;;;;8.30;45.90;100329.55;105876;1257;67960;-68
2023/05/10 02:41:24;;;;;;;10.50;4.00;;;;;;;8.27;46.07;100329.58;105406;1261;72332;-67
2023/05/10 02:44:15;;;;;;;7.70;3.90;;;;;;;8.23;46.16;100329.08;105663;1261;59629;-67
2023/05/10 02:47:03;;;;;;;9.60;3.50;;;;;;;8.20;46.37;100328.23;105737;1261;60589;-66
2023/05/10 02:49:52;;;;;;;11.00;4.00;;;;;;;8.17;46.36;100330.38;105580;1256;74632;-70
2023/05/10 02:52:47;;;;;;;7.60;4.00;;;;;;;8.15;46.42;100331.17;105879;1255;68213;-66
2023/05/10 02:55:41;;;;;;;8.30;3.80;;;;;;;8.14;46.38;100331.25;105793;1256;72714;-66
2023/05/10 02:58:29;;;;;;;9.50;4.20;;;;;;;8.12;46.53;100338.08;105526;1262;59725;-67
2023/05/10 03:01:17;;;;;;;9.60;4.10;;;;;;;8.10;46.74;100335.73;105500;1256;60129;-68
2023/05/10 03:04:06;;;;;;;9.10;3.90;;;;;;;8.08;46.79;100334.83;105335;1256;71478;-66
2023/05/10 03:06:56;;;;;;;9.50;4.00;;;;;;;8.04;46.88;100335.60;105928;1256;66349;-66
2023/05/10 03:09:50;;;;;;;8.90;3.90;;;;;;;7.99;47.02;100335.20;105538;1259;73277;-67
2023/05/10 03:13:13;;;;;;;11.70;4.30;;;;;;;7.95;47.31;100338.10;105591;1261;59818;-64
2023/05/10 03:16:14;;;;;;;9.00;4.50;;;;;;;7.90;47.47;100336.27;105496;1259;59778;-67
2023/05/10 03:19:17;;;;;;;10.30;4.10;;;;;;;7.87;47.60;100335.59;105424;1260;71422;-65
2023/05/10 03:22:10;;;;;;;9.60;4.20;;;;;;;7.85;47.76;100334.85;105488;1259;67861;-66
2023/05/10 03:25:05;;;;;;;8.80;4.30;;;;;;;7.83;47.91;100339.51;105633;1261;71440;-65
2023/05/10 03:27:55;;;;;;;9.20;4.20;;;;;;;7.83;47.80;100336.89;105448;1264;59618;-65
2023/05/10 03:30:45;;;;;;;8.40;3.90;;;;;;;7.81;48.00;100337.54;105483;1266;59725;-68
2023/05/10 03:33:34;;;;;;;8.50;3.60;;;;;;;7.80;48.08;100337.78;105818;1262;73070;-68
2023/05/10 03:36:22;;;;;;;14.10;4.20;;;;;;;7.78;48.21;100337.16;105646;1257;67885;-70
2023/05/10 03:39:11;;;;;;;11.10;3.70;;;;;;;7.78;48.36;100336.33;105535;1257;71558;-69
2023/05/10 03:41:59;;;;;;;11.20;4.20;;;;;;;7.77;48.31;100336.70;105607;1256;59697;-70
2023/05/10 03:44:49;;;;;;;8.80;4.30;;;;;;;7.78;48.23;100333.45;105431;1267;60436;-69
2023/05/10 03:47:37;;;;;;;9.50;3.70;;;;;;;7.80;48.32;100338.83;105299;1264;73071;-71
2023/05/10 03:50:26;;;;;;;11.50;4.00;;;;;;;7.81;48.09;100342.83;105280;1265;68038;-70
2023/05/10 03:53:15;;;;;;;8.70;3.70;;;;;;;7.84;48.09;100341.77;105114;1264;72825;-70
2023/05/10 03:56:06;;;;;;;10.00;4.50;;;;;;;7.86;47.85;100337.58;105013;1267;59697;-69
2023/05/10 03:58:57;;;;;;;10.60;4.50;;;;;;;7.90;47.84;100336.81;106754;1263;59618;-72
2023/05/10 04:01:45;;;;;;;9.00;4.10;;;;;;;7.94;47.61;100334.96;105091;1264;71901;-74
2023/05/10 04:04:35;;;;;;;9.60;4.30;;;;;;;7.99;47.43;100336.79;105078;1270;68047;-71
2023/05/10 04:07:25;;;;;;;10.10;4.00;;;;;;;8.05;47.21;100337.31;105458;1264;73662;-72
2023/05/10 04:10:13;;;;;;;12.90;4.90;;;;;;;8.10;47.06;100332.73;105050;1264;59662;-71
2023/05/10 04:13:02;;;;;;;10.90;5.90;;;;;;;8.14;46.87;100332.81;105148;1268;61531;-69
2023/05/10 04:15:51;;;;;;;10.30;4.40;;;;;;;8.20;46.50;100333.73;104890;1274;71596;-70
2023/05/10 04:18:39;;;;;;;10.10;4.10;;;;;;;8.26;46.23;100331.52;104823;1275;66356;-72
2023/05/10 04:21:28;;;;;;;8.80;3.80;;;;;;;8.32;46.11;100334.68;104982;1267;71236;-71
2023/05/10 04:24:16;;;;;;;8.70;3.90;;;;;;;8.40;45.52;100333.36;105191;1259;59917;-68
2023/05/10 04:27:05;;;;;;;9.40;4.10;;;;;;;8.48;45.54;100327.54;105544;1260;60041;-67
2023/05/10 04:29:54;;;;;;;9.70;4.10;;;;;;;8.56;45.41;100327.21;105247;1261;73042;-74
2023/05/10 04:32:42;;;;;;;9.70;4.00;;;;;;;8.62;45.02;100333.34;105383;1267;68591;-70
2023/05/10 04:35:31;;;;;;;9.70;3.90;;;;;;;8.70;44.62;100330.68;105324;1261;71496;-71
2023/05/10 04:38:19;;;;;;;8.60;4.10;;;;;;;8.78;44.57;100328.95;105258;1262;59600;-70
2023/05/10 04:41:10;;;;;;;11.90;4.10;;;;;;;8.85;44.78;100326.71;105329;1259;60047;-69
2023/05/10 04:43:58;;;;;;;10.20;3.80;;;;;;;8.92;44.43;100328.20;105386;1259;73087;-70
2023/05/10 04:46:46;;;;;;;9.30;3.60;;;;;;;9.00;44.16;100326.95;105537;1263;67615;-70
2023/05/10 04:49:35;;;;;;;9.60;4.20;;;;;;;9.08;44.10;100330.37;105285;1267;72439;-77
2023/05/10 04:52:26;;;;;;;12.10;4.30;;;;;;;9.15;43.94;100326.66;105706;1260;59568;-76
2023/05/10 04:55:15;;;;;;;9.40;3.90;;;;;;;9.23;43.60;100331.44;105636;1266;60206;-76
2023/05/10 04:58:05;;;;;;;12.10;4.10;;;;;;;9.31;43.47;100331.46;105700;1258;73066;-77
2023/05/10 05:00:55;;;;;;;9.20;3.80;;;;;;;9.40;43.07;100329.92;105690;1265;66450;-76
2023/05/10 05:03:44;;;;;;;8.90;3.90;;;;;;;9.54;42.97;100331.27;105621;1262;71477;-76
2023/05/10 05:06:33;;;;;;;13.00;4.20;;;;;;;9.74;42.64;100329.53;105644;1260;59630;-77
2023/05/10 05:09:21;;;;;;;9.60;4.60;;;;;;;10.26;41.91;100326.59;105876;1257;61736;-77
2023/05/10 05:12:13;;;;;;;9.40;3.80;;;;;;;11.49;39.72;100319.94;105800;1258;72786;-79
2023/05/10 05:15:04;;;;;;;9.00;3.90;;;;;;;12.98;36.91;100314.11;105355;1269;67805;-75
2023/05/10 05:17:56;;;;;;;8.50;3.90;;;;;;;14.38;34.98;100308.83;105591;1257;72485;-76
2023/05/10 05:20:45;;;;;;;9.70;3.80;;;;;;;15.57;32.25;100308.97;105727;1258;59545;-81
2023/05/10 05:23:34;;;;;;;9.20;4.30;;;;;;;16.53;30.46;100311.20;105847;1257;59813;-78
2023/05/10 05:26:22;;;;;;;7.80;3.40;;;;;;;17.30;29.31;100303.94;107919;1259;72577;-80
2023/05/10 05:29:11;;;;;;;8.80;3.90;;;;;;;17.99;28.22;100306.46;105768;1262;67953;-79
2023/05/10 05:32:03;;;;;;;8.30;4.00;;;;;;;18.60;27.08;100307.05;105756;1260;72737;-80
2023/05/10 05:34:54;;;;;;;10.20;3.50;;;;;;;19.24;26.54;100296.49;105566;1260;59222;-78
2023/05/10 05:37:43;;;;;;;9.30;3.70;;;;;;;19.80;25.49;100299.64;105407;1264;59787;-79
2023/05/10 05:40:33;;;;;;;11.40;3.80;;;;;;;20.38;24.60;100294.48;105330;1265;73087;-76
2023/05/10 05:43:22;;;;;;;15.20;3.40;;;;;;;20.53;24.20;100290.61;104806;1270;270019;-77
2023/05/10 05:46:10;;;;;;;9.80;3.60;;;;;;;20.96;24.01;100292.73;105091;1271;71603;-77
2023/05/10 05:49:00;;;;;;;9.40;3.40;;;;;;;21.63;22.98;100295.34;105170;1268;59304;-77
2023/05/10 05:52:04;;;;;;;7.90;3.20;;;;;;;22.30;22.62;100291.34;105666;1273;59611;-77
2023/05/10 05:54:54;;;;;;;9.30;3.30;;;;;;;23.15;21.72;100286.96;105204;1267;71771;-77
2023/05/10 05:57:48;;;;;;;7.10;3.00;;;;;;;23.51;21.01;100287.60;105196;1266;67692;-77
2023/05/10 06:00:37;;;;;;;9.00;3.60;;;;;;;23.50;20.48;100286.05;106136;1268;73878;-80
2023/05/10 06:03:25;;;;;;;8.70;3.10;;;;;;;23.82;20.30;100281.73;105748;1262;59656;-82
2023/05/10 06:06:15;;;;;;;9.50;3.50;;;;;;;24.24;20.06;100283.40;106425;1265;60134;-81
2023/05/10 06:09:04;;;;;;;7.70;3.30;;;;;;;24.09;19.56;100285.44;106390;1267;71821;-83
2023/05/10 06:11:53;;;;;;;8.50;3.50;;;;;;;24.05;19.58;100288.94;105943;1262;66615;-80
2023/05/10 06:14:42;;;;;;;10.10;3.60;;;;;;;23.90;19.71;100268.70;106000;1259;73509;-77
2023/05/10 06:17:31;;;;;;;9.00;3.20;;;;;;;24.11;19.55;100281.84;106309;1263;59604;-79
2023/05/10 06:20:20;;;;;;;7.60;3.40;;;;;;;24.39;19.31;100281.30;105696;1270;59611;-78
2023/05/10 06:23:10;;;;;;;9.60;3.40;;;;;;;24.47;19.10;100289.78;105971;1263;71448;-82
2023/05/10 06:26:01;;;;;;;7.70;3.30;;;;;;;24.47;19.11;100289.20;106170;1264;67644;-80
2023/05/10 06:28:56;;;;;;;8.50;3.30;;;;;;;24.23;19.02;100282.69;105425;1265;71451;-79
2023/05/10 06:31:45;;;;;;;10.50;3.40;;;;;;;24.04;19.19;100290.60;106192;1263;59749;-79
2023/05/10 06:34:35;;;;;;;7.40;3.30;;;;;;;23.94;19.27;100289.23;106148;1263;60152;-79
2023/05/10 06:37:23;;;;;;;8.30;3.20;;;;;;;24.23;19.38;100283.14;106192;1259;71751;-78
2023/05/10 06:40:13;;;;;;;10.30;3.70;;;;;;;24.68;18.67;100283.45;105888;1258;66840;-72
2023/05/10 06:43:01;;;;;;;11.10;3.40;;;;;;;25.40;18.58;100282.19;105771;1264;73648;-72
2023/05/10 06:45:50;;;;;;;9.40;3.80;;;;;;;25.82;17.92;100284.94;105798;1264;59568;-78
2023/05/10 06:48:39;;;;;;;7.70;3.00;;;;;;;26.06;17.48;100282.14;105989;1255;60130;-76
2023/05/10 06:51:27;;;;;;;10.30;3.80;;;;;;;26.56;17.20;100281.41;106076;1259;73265;-77
2023/05/10 06:54:16;;;;;;;10.20;3.50;;;;;;;27.00;17.22;100276.11;105956;1259;67631;-77
2023/05/10 06:57:05;;;;;;;7.40;3.40;;;;;;;27.01;16.69;100279.09;105920;1262;73791;-78
2023/05/10 07:00:09;;;;;;;8.90;3.50;;;;;;;27.44;16.86;100271.02;106051;1256;59564;-75
2023/05/10 07:02:58;;;;;;;9.70;3.50;;;;;;;27.76;16.57;100276.95;105989;1259;60488;-73
2023/05/10 07:05:46;;;;;;;10.30;3.20;;;;;;;27.85;16.17;100276.09;105697;1254;72205;-73
2023/05/10 07:08:34;;;;;;;11.00;3.60;;;;;;;27.89;16.08;100279.45;106000;1259;67878;-72
2023/05/10 07:11:23;;;;;;;7.70;3.30;;;;;;;27.89;16.17;100278.35;106061;1258;72532;-74
2023/05/10 07:14:11;;;;;;;9.40;3.70;;;;;;;27.88;15.93;100276.36;105856;1261;59741;-73
2023/05/10 07:16:59;;;;;;;8.30;3.00;;;;;;;27.19;16.35;100284.85;105745;1263;60048;-75
2023/05/10 07:19:49;;;;;;;10.30;3.20;;;;;;;26.89;16.50;100282.86;105806;1255;71754;-71
2023/05/10 07:22:37;;;;;;;8.10;3.30;;;;;;;26.90;16.87;100276.39;105802;1256;66427;-73
2023/05/10 07:25:26;;;;;;;7.00;2.80;;;;;;;26.45;17.07;100277.72;105733;1258;72753;-75
2023/05/10 07:28:17;;;;;;;9.70;3.70;;;;;;;26.44;17.23;100279.38;106319;1256;59668;-76
2023/05/10 07:31:05;;;;;;;10.10;3.10;;;;;;;26.74;17.18;100271.89;106006;1256;60223;-83
2023/05/10 07:33:54;;;;;;;8.20;3.10;;;;;;;26.58;16.86;100279.36;106402;1256;71496;-78
2023/05/10 07:36:42;;;;;;;10.50;3.30;;;;;;;26.63;17.17;100275.31;106136;1257;67697;-82
2023/05/10 07:39:31;;;;;;;9.70;3.40;;;;;;;26.65;17.02;100278.48;105737;1263;72362;-75
2023/05/10 07:42:19;;;;;;;10.60;3.30;;;;;;;26.34;17.25;100277.58;105888;1256;59700;-75
2023/05/10 07:45:08;;;;;;;9.70;3.20;;;;;;;26.42;17.33;100264.14;105912;1259;60044;-74
2023/05/10 07:47:57;;;;;;;8.80;2.80;;;;;;;26.37;17.45;100267.23;105745;1259;71642;-74
2023/05/10 07:50:45;;;;;;;10.00;3.30;;;;;;;26.19;17.23;100263.78;105711;1258;66191;-74
2023/05/10 07:53:33;;;;;;;11.90;3.20;;;;;;;26.11;17.17;100265.66;105581;1255;72751;-73
2023/05/10 07:56:29;;;;;;;9.60;3.20;;;;;;;26.28;17.29;100266.30;105636;1261;59560;-75
2023/05/10 07:59:17;;;;;;;10.20;3.40;;;;;;;26.49;16.91;100269.69;105710;1257;60275;-73
2023/05/10 08:02:06;;;;;;;8.20;3.00;;;;;;;26.53;16.99;100270.41;105525;1259;71987;-74
2023/05/10 08:04:55;;;;;;;8.10;2.90;;;;;;;26.77;16.59;100273.05;105647;1259;67974;-74
2023/05/10 08:07:43;;;;;;;9.90;2.90;;;;;;;26.66;16.59;100269.13;105658;1259;71430;-74
2023/05/10 08:10:32;;;;;;;7.10;2.70;;;;;;;26.60;16.93;100270.08;105733;1257;59773;-73
2023/05/10 08:13:23;;;;;;;10.00;3.20;;;;;;;25.88;16.66;100274.89;105698;1259;59593;-73
2023/05/10 08:16:11;;;;;;;7.70;2.80;;;;;;;25.91;16.97;100272.98;105661;1257;71821;-72
2023/05/10 08:19:02;;;;;;;8.80;2.80;;;;;;;25.93;16.78;100259.96;105883;1256;67692;-75
2023/05/10 08:21:50;;;;;;;8.90;2.80;;;;;;;25.73;16.87;100255.08;105775;1255;73561;-74
2023/05/10 08:24:38;;;;;;;9.00;2.30;;;;;;;25.31;16.68;100264.89;105677;1260;59644;-72
2023/05/10 08:27:27;;;;;;;8.60;2.90;;;;;;;25.20;16.99;100246.48;105725;1256;60859;-72
2023/05/10 08:30:15;;;;;;;7.60;2.90;;;;;;;25.91;16.89;100243.84;105625;1257;72877;-73
2023/05/10 08:33:03;;;;;;;9.00;2.90;;;;;;;26.44;16.43;100247.29;105909;1256;66342;-71
2023/05/10 08:35:52;;;;;;;8.10;3.00;;;;;;;26.47;16.26;100246.32;105743;1257;72753;-73
2023/05/10 08:38:40;;;;;;;9.20;2.90;;;;;;;25.40;16.76;100251.13;105897;1256;59782;-74
2023/05/10 08:41:33;;;;;;;7.80;2.80;;;;;;;25.32;17.01;100251.55;106019;1256;60059;-74
2023/05/10 08:44:21;;;;;;;8.80;2.90;;;;;;;25.07;17.17;100251.61;105757;1255;73105;-74
2023/05/10 08:47:11;;;;;;;7.50;2.60;;;;;;;25.33;17.15;100239.04;105749;1259;68959;-74
2023/05/10 08:50:00;;;;;;;10.10;2.90;;;;;;;25.55;17.31;100236.77;105733;1256;72824;-74
2023/05/10 08:52:52;;;;;;;7.20;2.80;;;;;;;26.47;16.69;100237.16;105764;1256;59648;-74
2023/05/10 08:55:43;;;;;;;9.80;2.80;;;;;;;26.99;16.20;100234.58;105828;1257;59639;-74
2023/05/10 08:58:31;;;;;;;7.40;2.70;;;;;;;26.34;16.42;100238.58;105798;1259;73015;-76
2023/05/10 09:01:21;;;;;;;9.90;2.60;;;;;;;26.85;16.53;100228.88;105869;1259;67928;-73
2023/05/10 09:04:11;;;;;;;7.40;2.60;;;;;;;26.52;16.24;100240.48;105792;1256;72844;-75
2023/05/10 09:07:00;;;;;;;9.10;2.70;;;;;;;26.83;16.53;100227.34;105379;1259;59327;-75
2023/05/10 09:09:49;;;;;;;8.40;2.50;;;;;;;27.01;16.04;100218.64;105632;1259;60393;-74
2023/05/10 09:12:38;;;;;;;8.50;2.60;;;;;;;26.20;16.40;100245.39;105545;1259;72137;-72
2023/05/10 09:15:26;;;;;;;9.80;2.60;;;;;;;25.68;16.53;100226.83;105543;1259;68075;-73
2023/05/10 09:18:15;;;;;;;9.30;2.50;;;;;;;25.58;16.71;100224.77;105474;1260;72763;-73
2023/05/10 09:21:03;;;;;;;7.20;2.60;;;;;;;25.62;16.86;100232.39;105474;1261;59728;-72
2023/05/10 09:23:54;;;;;;;9.30;3.20;;;;;;;25.73;16.72;100213.48;105482;1259;60967;-72
2023/05/10 09:26:51;;;;;;;12.20;2.70;;;;;;;25.90;16.72;100214.68;105460;1259;73045;-74
2023/05/10 09:29:41;;;;;;;11.30;2.90;;;;;;;26.14;16.25;100225.70;105530;1259;66256;-74
2023/05/10 09:32:44;;;;;;;9.30;2.40;;;;;;;25.74;16.18;100217.05;105650;1261;71446;-75
2023/05/10 09:35:33;;;;;;;10.30;2.80;;;;;;;25.72;16.16;100226.52;106063;1259;59697;-73
2023/05/10 09:38:22;;;;;;;9.10;2.50;;;;;;;25.41;16.29;100213.00;106110;1256;60274;-75
2023/05/10 09:41:22;;;;;;;7.80;2.70;;;;;;;25.58;16.14;100212.94;106126;1257;74226;-73
2023/05/10 09:44:12;;;;;;;7.50;2.50;;;;;;;25.79;16.13;100224.45;105907;1257;67927;-75
2023/05/10 09:47:04;;;;;;;9.10;2.70;;;;;;;25.53;16.17;100234.09;105723;1259;72346;-74
2023/05/10 09:49:57;;;;;;;8.30;2.60;;;;;;;25.17;16.59;100241.55;105808;1259;60109;-71
2023/05/10 09:53:02;;;;;;;9.50;2.80;;;;;;;25.02;16.82;100225.64;105820;1257;60518;-74
2023/05/10 09:55:51;;;;;;;10.20;2.90;;;;;;;24.63;16.84;100220.65;105908;1256;73168;-73
2023/05/10 09:58:40;;;;;;;8.40;2.40;;;;;;;24.69;16.81;100214.22;105929;1259;69139;-76
2023/05/10 10:01:29;;;;;;;9.70;2.70;;;;;;;24.76;16.44;100208.23;105850;1256;72929;-74
2023/05/10 10:04:17;;;;;;;9.30;2.80;;;;;;;24.91;16.40;100204.17;105799;1256;59646;-73
2023/05/10 10:07:06;;;;;;;11.50;2.60;;;;;;;24.52;16.86;100210.88;105742;1256;60124;-71
2023/05/10 10:09:58;;;;;;;9.30;2.60;;;;;;;24.67;17.08;100204.56;105771;1259;71711;-73
2023/05/10 10:12:46;;;;;;;7.50;2.50;;;;;;;25.55;16.78;100199.83;105686;1256;67154;-70
2023/05/10 10:15:35;;;;;;;9.90;2.70;;;;;;;26.01;16.34;100206.83;105886;1262;72791;-74
2023/05/10 10:18:26;;;;;;;9.90;2.90;;;;;;;25.72;16.26;100196.66;105507;1264;59810;-74
2023/05/10 10:21:16;;;;;;;7.50;2.70;;;;;;;25.90;16.16;100200.66;105756;1256;59493;-72
2023/05/10 10:24:06;;;;;;;6.50;2.70;;;;;;;25.56;16.38;100196.41;105642;1258;73268;-73
2023/05/10 10:27:12;;;;;;;8.10;2.30;;;;;;;25.25;16.45;100197.05;105650;1256;67595;-73
2023/05/10 10:30:42;;;;;;;15.90;3.40;;;;;;;25.03;16.78;100182.59;105811;1256;71127;-75
2023/05/10 10:33:48;;;;;;;8.50;2.60;;;;;;;25.29;16.78;100179.79;105754;1255;59737;-74
2023/05/10 10:36:46;;;;;;;7.30;2.40;;;;;;;25.28;16.44;100191.39;105974;1256;60156;-75
2023/05/10 10:39:36;;;;;;;12.70;3.00;;;;;;;25.02;16.65;100176.44;105688;1256;71583;-74
2023/05/10 10:42:45;;;;;;;8.60;2.80;;;;;;;25.52;16.69;100170.27;105799;1260;67613;-73
2023/05/10 10:45:33;;;;;;;12.40;2.70;;;;;;;25.64;16.34;100167.27;106069;1259;72392;-74
2023/05/10 10:48:23;;;;;;;7.40;2.50;;;;;;;26.07;16.12;100171.61;105670;1256;59658;-74
2023/05/10 10:51:13;;;;;;;11.50;2.90;;;;;;;26.42;15.87;100163.04;105697;1256;60205;-72
2023/05/10 10:54:12;;;;;;;8.50;3.00;;;;;;;26.75;15.45;100158.08;105494;1262;73072;-75
2023/05/10 10:57:14;;;;;;;7.10;2.70;;;;;;;26.56;15.29;100153.14;105825;1259;67910;-74
2023/05/10 11:00:21;;;;;;;11.60;2.60;;;;;;;27.07;15.31;100156.27;105833;1256;72814;-71
2023/05/10 11:03:18;;;;;;;10.70;2.60;;;;;;;27.02;14.82;100160.21;105983;1256;59541;-73
2023/05/10 11:06:07;;;;;;;8.70;2.60;;;;;;;26.70;14.75;100159.17;105759;1256;59793;-74
2023/05/10 11:08:55;;;;;;;8.50;2.70;;;;;;;26.47;14.99;100162.59;106014;1256;71440;-75
2023/05/10 11:11:55;;;;;;;11.60;2.50;;;;;;;26.05;15.48;100149.41;105939;1259;67938;-72
2023/05/10 11:14:43;;;;;;;10.60;2.60;;;;;;;26.25;15.63;100144.48;105838;1261;73142;-72
2023/05/10 11:17:32;;;;;;;11.20;2.50;;;;;;;25.44;16.16;100131.95;105630;1256;59830;-73
2023/05/10 11:20:24;;;;;;;12.90;2.80;;;;;;;25.20;16.18;100143.27;105783;1257;61272;-74
2023/05/10 11:23:15;;;;;;;8.70;2.70;;;;;;;24.82;16.57;100135.66;105647;1259;71830;-73
2023/05/10 11:26:04;;;;;;;11.40;2.70;;;;;;;24.41;16.85;100148.60;105764;1255;67871;-72
2023/05/10 11:28:58;;;;;;;11.10;2.80;;;;;;;23.53;17.44;100153.49;105600;1256;71460;-73
2023/05/10 11:31:48;;;;;;;11.50;2.90;;;;;;;22.74;18.04;100151.58;105911;1255;59691;-72
2023/05/10 11:34:36;;;;;;;8.60;2.70;;;;;;;22.38;18.62;100148.66;105592;1263;59550;-73
2023/05/10 11:37:32;;;;;;;9.10;2.70;;;;;;;22.09;18.94;100140.59;105760;1256;72999;-71
2023/05/10 11:40:24;;;;;;;7.70;2.70;;;;;;;21.42;19.90;100153.30;105712;1255;65939;-72
2023/05/10 11:43:12;;;;;;;7.10;2.80;;;;;;;21.38;19.98;100150.58;105852;1259;71086;-74
2023/05/10 11:46:01;;;;;;;8.30;2.70;;;;;;;20.92;20.00;100148.17;105778;1256;59520;-73
2023/05/10 11:48:53;;;;;;;8.90;2.60;;;;;;;20.47;20.86;100132.20;105983;1259;59836;-72
2023/05/10 11:51:43;;;;;;;8.10;2.90;;;;;;;20.27;21.49;100149.52;105931;1259;71627;-71
2023/05/10 11:54:33;;;;;;;7.90;2.50;;;;;;;19.83;21.72;100151.20;106700;1255;66905;-72
2023/05/10 11:57:28;;;;;;;12.00;3.40;;;;;;;19.38;21.98;100160.23;107121;1256;71641;-73
2023/05/10 12:00:17;;;;;;;8.60;2.60;;;;;;;18.99;22.43;100147.68;106446;1262;59708;-69
2023/05/10 12:03:10;;;;;;;7.40;2.70;;;;;;;18.97;23.01;100138.61;106204;1256;60408;-72
2023/05/10 12:06:01;;;;;;;10.50;2.90;;;;;;;18.99;23.30;100143.45;105849;1256;72942;-73
2023/05/10 12:08:53;;;;;;;11.50;2.70;;;;;;;19.03;23.24;100141.14;105867;1256;68009;-71
2023/05/10 12:11:42;;;;;;;9.00;3.30;;;;;;;18.99;22.95;100142.16;105576;1256;71438;-72
2023/05/10 12:14:36;;;;;;;7.20;2.40;;;;;;;18.83;22.75;100139.58;105890;1259;59620;-72
2023/05/10 12:17:29;;;;;;;8.70;3.10;;;;;;;18.62;23.16;100144.04;105691;1256;60240;-72
2023/05/10 12:20:25;;;;;;;8.00;2.80;;;;;;;18.48;23.78;100136.23;105659;1262;72821;-72
2023/05/10 12:23:14;;;;;;;8.30;3.10;;;;;;;18.44;24.18;100136.70;105910;1257;67537;-73
2023/05/10 12:26:05;;;;;;;11.90;2.90;;;;;;;18.49;24.36;100122.49;105636;1257;71088;-73
2023/05/10 12:28:54;;;;;;;9.10;3.00;;;;;;;18.50;24.41;100130.84;105624;1256;59675;-72
2023/05/10 12:31:58;;;;;;;13.90;3.20;;;;;;;18.53;24.47;100123.88;105875;1256;60443;-73
2023/05/10 12:34:47;;;;;;;9.10;2.80;;;;;;;18.36;24.53;100143.98;106039;1256;72554;-73
2023/05/10 12:37:38;;;;;;;8.10;3.00;;;;;;;18.28;24.42;100142.06;105602;1259;67902;-73
2023/05/10 12:40:29;;;;;;;11.20;2.70;;;;;;;18.18;24.34;100138.23;105870;1256;70901;-73
2023/05/10 12:43:18;;;;;;;10.20;2.80;;;;;;;18.34;24.35;100128.80;105604;1259;59601;-73
2023/05/10 12:46:06;;;;;;;9.90;3.10;;;;;;;18.44;23.63;100142.96;105639;1257;60365;-72
2023/05/10 12:48:56;;;;;;;12.80;3.00;;;;;;;18.30;23.76;100147.38;105767;1259;73052;-74
2023/05/10 12:51:57;;;;;;;8.70;3.00;;;;;;;18.24;24.00;100136.70;105978;1255;66596;-72
2023/05/10 12:54:49;;;;;;;8.80;2.90;;;;;;;18.22;24.25;100122.06;105842;1256;73597;-74
2023/05/10 12:57:38;;;;;;;10.00;2.90;;;;;;;18.36;24.68;100115.30;105871;1256;59655;-72
2023/05/10 13:00:26;;;;;;;8.50;2.40;;;;;;;18.56;24.64;100135.94;105586;1256;60455;-71
2023/05/10 13:03:16;;;;;;;7.50;2.40;;;;;;;18.57;23.37;100125.75;105707;1256;73098;-71
2023/05/10 13:06:06;;;;;;;9.50;2.70;;;;;;;18.51;23.46;100133.04;105672;1256;68176;-74
2023/05/10 13:08:54;;;;;;;12.00;3.00;;;;;;;18.48;24.10;100120.10;105789;1259;73005;-72
2023/05/10 13:11:43;;;;;;;8.40;2.40;;;;;;;18.47;24.01;100120.41;105769;1256;59767;-74